sensor_id;sensor_type;location;lat;lon;timestamp;P1;durP1;ratioP1;P2;durP2;ratioP2
8252;SDS011;61313;48.396;10.008;2024-03-02T00:00:14;17.80;;;11.87;;
8252;SDS011;61313;48.396;10.008;2024-03-02T00:02:42;17.23;;;12.70;;
8252;SDS011;61313;48.396;10.008;2024-03-02T00:05:12;14.80;;;11.00;;
8252;SDS011;61313;48.396;10.008;2024-03-02T00:07:42;20.57;;;13.50;;
8252;SDS011;61313;48.396;10.008;2024-03-02T00:10:10;16.77;;;13.30;;
8252;SDS011;61313;48.396;10.008;2024-03-02T00:12:39;17.33;;;13.50;;
8252;SDS011;61313;48.396;10.008;2024-03-02T00:18:04;12.63;;;11.10;;
8252;SDS011;61313;48.396;10.008;2024-03-02T00:20:30;10.73;;;9.63;;
8252;SDS011;61313;48.396;10.008;2024-03-02T00:23:04;12.20;;;10.33;;
8252;SDS011;61313;48.396;10.008;2024-03-02T00:25:37;13.10;;;11.70;;
8252;SDS011;61313;48.396;10.008;2024-03-02T00:28:06;11.83;;;10.33;;
8252;SDS011;61313;48.396;10.008;2024-03-02T00:30:51;10.60;;;9.50;;
8252;SDS011;61313;48.396;10.008;2024-03-02T00:33:24;12.20;;;10.90;;
8252;SDS011;61313;48.396;10.008;2024-03-02T00:35:52;12.47;;;10.27;;
8252;SDS011;61313;48.396;10.008;2024-03-02T00:38:18;13.00;;;11.03;;
8252;SDS011;61313;48.396;10.008;2024-03-02T00:40:44;11.70;;;10.50;;
8252;SDS011;61313;48.396;10.008;2024-03-02T00:43:36;11.20;;;9.83;;
8252;SDS011;61313;48.396;10.008;2024-03-02T00:46:06;11.87;;;10.63;;
8252;SDS011;61313;48.396;10.008;2024-03-02T00:48:32;11.13;;;9.93;;
8252;SDS011;61313;48.396;10.008;2024-03-02T00:51:00;14.07;;;10.93;;
8252;SDS011;61313;48.396;10.008;2024-03-02T00:53:28;11.37;;;9.90;;
8252;SDS011;61313;48.396;10.008;2024-03-02T00:55:54;11.30;;;10.10;;
8252;SDS011;61313;48.396;10.008;2024-03-02T00:58:20;11.57;;;10.40;;
8252;SDS011;61313;48.396;10.008;2024-03-02T01:00:46;13.00;;;10.33;;
8252;SDS011;61313;48.396;10.008;2024-03-02T01:03:12;12.07;;;10.83;;
8252;SDS011;61313;48.396;10.008;2024-03-02T01:05:41;12.50;;;11.20;;
8252;SDS011;61313;48.396;10.008;2024-03-02T01:08:09;12.40;;;11.20;;
8252;SDS011;61313;48.396;10.008;2024-03-02T01:10:35;11.87;;;10.60;;
8252;SDS011;61313;48.396;10.008;2024-03-02T01:13:00;12.13;;;10.93;;
8252;SDS011;61313;48.396;10.008;2024-03-02T01:15:26;12.27;;;10.97;;
8252;SDS011;61313;48.396;10.008;2024-03-02T01:17:51;11.90;;;10.80;;
8252;SDS011;61313;48.396;10.008;2024-03-02T01:20:17;17.67;;;10.87;;
8252;SDS011;61313;48.396;10.008;2024-03-02T01:22:42;19.50;;;11.10;;
8252;SDS011;61313;48.396;10.008;2024-03-02T01:25:08;12.17;;;10.73;;
8252;SDS011;61313;48.396;10.008;2024-03-02T01:27:34;13.47;;;11.00;;
8252;SDS011;61313;48.396;10.008;2024-03-02T01:29:59;11.57;;;9.73;;
8252;SDS011;61313;48.396;10.008;2024-03-02T01:32:25;14.63;;;10.07;;
8252;SDS011;61313;48.396;10.008;2024-03-02T01:34:50;11.20;;;10.00;;
8252;SDS011;61313;48.396;10.008;2024-03-02T01:37:16;11.20;;;10.10;;
8252;SDS011;61313;48.396;10.008;2024-03-02T01:39:41;13.00;;;11.60;;
8252;SDS011;61313;48.396;10.008;2024-03-02T01:42:06;12.90;;;10.90;;
8252;SDS011;61313;48.396;10.008;2024-03-02T01:44:32;12.17;;;10.20;;
8252;SDS011;61313;48.396;10.008;2024-03-02T01:46:57;12.20;;;10.60;;
8252;SDS011;61313;48.396;10.008;2024-03-02T01:49:23;12.97;;;11.00;;
8252;SDS011;61313;48.396;10.008;2024-03-02T01:51:48;11.90;;;10.47;;
8252;SDS011;61313;48.396;10.008;2024-03-02T01:54:13;10.87;;;9.77;;
8252;SDS011;61313;48.396;10.008;2024-03-02T01:56:39;13.60;;;10.47;;
8252;SDS011;61313;48.396;10.008;2024-03-02T01:59:04;12.60;;;10.90;;
8252;SDS011;61313;48.396;10.008;2024-03-02T02:01:30;16.63;;;11.27;;
8252;SDS011;61313;48.396;10.008;2024-03-02T02:03:56;12.00;;;10.13;;
8252;SDS011;61313;48.396;10.008;2024-03-02T02:06:21;13.67;;;11.40;;
8252;SDS011;61313;48.396;10.008;2024-03-02T02:08:47;13.30;;;11.90;;
8252;SDS011;61313;48.396;10.008;2024-03-02T02:11:15;12.23;;;10.90;;
8252;SDS011;61313;48.396;10.008;2024-03-02T02:13:41;12.67;;;11.37;;
8252;SDS011;61313;48.396;10.008;2024-03-02T02:16:07;14.30;;;11.63;;
8252;SDS011;61313;48.396;10.008;2024-03-02T02:18:33;12.70;;;11.20;;
8252;SDS011;61313;48.396;10.008;2024-03-02T02:21:00;12.93;;;11.63;;
8252;SDS011;61313;48.396;10.008;2024-03-02T02:23:25;12.17;;;11.00;;
8252;SDS011;61313;48.396;10.008;2024-03-02T02:25:51;12.43;;;11.17;;
8252;SDS011;61313;48.396;10.008;2024-03-02T02:28:16;12.87;;;10.43;;
8252;SDS011;61313;48.396;10.008;2024-03-02T02:30:42;11.43;;;10.23;;
8252;SDS011;61313;48.396;10.008;2024-03-02T02:33:08;12.30;;;11.03;;
8252;SDS011;61313;48.396;10.008;2024-03-02T02:35:34;12.87;;;11.47;;
8252;SDS011;61313;48.396;10.008;2024-03-02T02:38:00;13.03;;;11.47;;
8252;SDS011;61313;48.396;10.008;2024-03-02T02:40:26;13.00;;;11.70;;
8252;SDS011;61313;48.396;10.008;2024-03-02T02:42:51;12.13;;;10.93;;
8252;SDS011;61313;48.396;10.008;2024-03-02T02:45:17;16.50;;;12.37;;
8252;SDS011;61313;48.396;10.008;2024-03-02T02:47:43;14.73;;;11.83;;
8252;SDS011;61313;48.396;10.008;2024-03-02T02:50:10;13.70;;;11.23;;
8252;SDS011;61313;48.396;10.008;2024-03-02T02:52:37;11.87;;;10.63;;
8252;SDS011;61313;48.396;10.008;2024-03-02T02:55:05;12.10;;;10.70;;
8252;SDS011;61313;48.396;10.008;2024-03-02T02:57:32;12.30;;;10.90;;
8252;SDS011;61313;48.396;10.008;2024-03-02T03:00:00;16.23;;;12.10;;
8252;SDS011;61313;48.396;10.008;2024-03-02T03:02:30;27.57;;;13.17;;
8252;SDS011;61313;48.396;10.008;2024-03-02T03:04:55;17.10;;;13.67;;
8252;SDS011;61313;48.396;10.008;2024-03-02T03:07:22;18.13;;;12.30;;
8252;SDS011;61313;48.396;10.008;2024-03-02T03:09:48;13.37;;;11.13;;
8252;SDS011;61313;48.396;10.008;2024-03-02T03:12:13;23.23;;;14.23;;
8252;SDS011;61313;48.396;10.008;2024-03-02T03:14:40;14.67;;;11.77;;
8252;SDS011;61313;48.396;10.008;2024-03-02T03:17:06;14.57;;;12.30;;
8252;SDS011;61313;48.396;10.008;2024-03-02T03:19:33;16.03;;;12.23;;
8252;SDS011;61313;48.396;10.008;2024-03-02T03:21:58;17.57;;;11.90;;
8252;SDS011;61313;48.396;10.008;2024-03-02T03:24:24;12.57;;;11.27;;
8252;SDS011;61313;48.396;10.008;2024-03-02T03:26:49;12.03;;;10.70;;
8252;SDS011;61313;48.396;10.008;2024-03-02T03:29:14;14.87;;;12.47;;
8252;SDS011;61313;48.396;10.008;2024-03-02T03:31:40;14.07;;;11.33;;
8252;SDS011;61313;48.396;10.008;2024-03-02T03:34:05;16.57;;;12.33;;
8252;SDS011;61313;48.396;10.008;2024-03-02T03:36:31;16.47;;;11.67;;
8252;SDS011;61313;48.396;10.008;2024-03-02T03:38:56;16.87;;;12.30;;
8252;SDS011;61313;48.396;10.008;2024-03-02T03:41:22;13.90;;;10.90;;
8252;SDS011;61313;48.396;10.008;2024-03-02T03:43:48;15.50;;;12.80;;
8252;SDS011;61313;48.396;10.008;2024-03-02T03:46:13;14.13;;;11.20;;
8252;SDS011;61313;48.396;10.008;2024-03-02T03:48:38;14.43;;;11.60;;
8252;SDS011;61313;48.396;10.008;2024-03-02T03:51:04;15.00;;;11.60;;
8252;SDS011;61313;48.396;10.008;2024-03-02T03:53:29;15.13;;;12.13;;
8252;SDS011;61313;48.396;10.008;2024-03-02T03:55:55;15.97;;;11.40;;
8252;SDS011;61313;48.396;10.008;2024-03-02T03:58:20;17.30;;;11.70;;
8252;SDS011;61313;48.396;10.008;2024-03-02T04:00:46;16.17;;;11.70;;
8252;SDS011;61313;48.396;10.008;2024-03-02T04:03:11;16.13;;;12.90;;
8252;SDS011;61313;48.396;10.008;2024-03-02T04:05:37;16.90;;;13.43;;
8252;SDS011;61313;48.396;10.008;2024-03-02T04:08:03;18.20;;;12.43;;
8252;SDS011;61313;48.396;10.008;2024-03-02T04:10:29;20.43;;;13.13;;
8252;SDS011;61313;48.396;10.008;2024-03-02T04:12:55;17.60;;;13.17;;
8252;SDS011;61313;48.396;10.008;2024-03-02T04:15:21;18.17;;;14.93;;
8252;SDS011;61313;48.396;10.008;2024-03-02T04:17:48;18.10;;;13.77;;
8252;SDS011;61313;48.396;10.008;2024-03-02T04:20:13;21.63;;;15.90;;
8252;SDS011;61313;48.396;10.008;2024-03-02T04:22:39;17.40;;;13.57;;
8252;SDS011;61313;48.396;10.008;2024-03-02T04:25:04;16.20;;;12.80;;
8252;SDS011;61313;48.396;10.008;2024-03-02T04:27:30;16.67;;;13.60;;
8252;SDS011;61313;48.396;10.008;2024-03-02T04:29:59;16.90;;;14.20;;
8252;SDS011;61313;48.396;10.008;2024-03-02T04:32:25;17.87;;;13.90;;
8252;SDS011;61313;48.396;10.008;2024-03-02T04:34:51;20.97;;;14.30;;
8252;SDS011;61313;48.396;10.008;2024-03-02T04:37:16;18.03;;;14.00;;
8252;SDS011;61313;48.396;10.008;2024-03-02T04:39:42;19.03;;;14.60;;
8252;SDS011;61313;48.396;10.008;2024-03-02T04:42:07;20.70;;;14.43;;
8252;SDS011;61313;48.396;10.008;2024-03-02T04:44:33;17.17;;;13.93;;
8252;SDS011;61313;48.396;10.008;2024-03-02T04:46:58;18.87;;;14.47;;
8252;SDS011;61313;48.396;10.008;2024-03-02T04:49:23;18.90;;;14.43;;
8252;SDS011;61313;48.396;10.008;2024-03-02T04:51:49;25.00;;;14.47;;
8252;SDS011;61313;48.396;10.008;2024-03-02T04:54:14;16.10;;;12.37;;
8252;SDS011;61313;48.396;10.008;2024-03-02T04:56:40;22.07;;;17.47;;
8252;SDS011;61313;48.396;10.008;2024-03-02T04:59:09;17.00;;;14.27;;
8252;SDS011;61313;48.396;10.008;2024-03-02T05:01:35;16.90;;;13.30;;
8252;SDS011;61313;48.396;10.008;2024-03-02T05:04:01;16.23;;;12.87;;
8252;SDS011;61313;48.396;10.008;2024-03-02T05:06:26;14.57;;;11.63;;
8252;SDS011;61313;48.396;10.008;2024-03-02T05:08:52;17.43;;;13.97;;
8252;SDS011;61313;48.396;10.008;2024-03-02T05:11:17;13.37;;;11.93;;
8252;SDS011;61313;48.396;10.008;2024-03-02T05:14:01;15.40;;;12.60;;
8252;SDS011;61313;48.396;10.008;2024-03-02T05:16:27;17.93;;;13.50;;
8252;SDS011;61313;48.396;10.008;2024-03-02T05:18:52;20.43;;;13.40;;
8252;SDS011;61313;48.396;10.008;2024-03-02T05:21:18;16.70;;;13.30;;
8252;SDS011;61313;48.396;10.008;2024-03-02T05:23:43;18.23;;;14.20;;
8252;SDS011;61313;48.396;10.008;2024-03-02T05:26:09;18.50;;;13.37;;
8252;SDS011;61313;48.396;10.008;2024-03-02T05:28:38;19.40;;;14.30;;
8252;SDS011;61313;48.396;10.008;2024-03-02T05:31:03;15.50;;;12.97;;
8252;SDS011;61313;48.396;10.008;2024-03-02T05:33:29;16.00;;;12.40;;
8252;SDS011;61313;48.396;10.008;2024-03-02T05:35:56;20.03;;;13.53;;
8252;SDS011;61313;48.396;10.008;2024-03-02T05:38:21;14.70;;;13.20;;
8252;SDS011;61313;48.396;10.008;2024-03-02T05:40:47;15.10;;;12.53;;
8252;SDS011;61313;48.396;10.008;2024-03-02T05:43:13;25.67;;;13.37;;
8252;SDS011;61313;48.396;10.008;2024-03-02T05:45:38;15.97;;;12.37;;
8252;SDS011;61313;48.396;10.008;2024-03-02T05:48:05;15.93;;;12.60;;
8252;SDS011;61313;48.396;10.008;2024-03-02T05:50:34;15.57;;;12.90;;
8252;SDS011;61313;48.396;10.008;2024-03-02T05:52:59;23.50;;;13.33;;
8252;SDS011;61313;48.396;10.008;2024-03-02T05:55:25;13.87;;;11.30;;
8252;SDS011;61313;48.396;10.008;2024-03-02T05:57:50;17.50;;;13.20;;
8252;SDS011;61313;48.396;10.008;2024-03-02T06:00:31;21.37;;;13.40;;
8252;SDS011;61313;48.396;10.008;2024-03-02T06:02:56;14.17;;;12.67;;
8252;SDS011;61313;48.396;10.008;2024-03-02T06:05:22;18.10;;;12.40;;
8252;SDS011;61313;48.396;10.008;2024-03-02T06:07:47;17.23;;;12.33;;
8252;SDS011;61313;48.396;10.008;2024-03-02T06:10:13;15.87;;;12.60;;
8252;SDS011;61313;48.396;10.008;2024-03-02T06:12:39;16.43;;;12.93;;
8252;SDS011;61313;48.396;10.008;2024-03-02T06:15:05;13.13;;;11.40;;
8252;SDS011;61313;48.396;10.008;2024-03-02T06:17:30;14.37;;;11.80;;
8252;SDS011;61313;48.396;10.008;2024-03-02T06:19:56;14.97;;;13.37;;
8252;SDS011;61313;48.396;10.008;2024-03-02T06:22:21;13.80;;;11.17;;
8252;SDS011;61313;48.396;10.008;2024-03-02T06:24:49;20.30;;;13.10;;
8252;SDS011;61313;48.396;10.008;2024-03-02T06:27:15;17.00;;;13.80;;
8252;SDS011;61313;48.396;10.008;2024-03-02T06:29:41;18.83;;;13.07;;
8252;SDS011;61313;48.396;10.008;2024-03-02T06:32:06;18.33;;;13.70;;
8252;SDS011;61313;48.396;10.008;2024-03-02T06:34:32;18.27;;;13.87;;
8252;SDS011;61313;48.396;10.008;2024-03-02T06:36:58;16.90;;;12.80;;
8252;SDS011;61313;48.396;10.008;2024-03-02T06:39:23;15.37;;;12.90;;
8252;SDS011;61313;48.396;10.008;2024-03-02T06:41:48;23.63;;;13.90;;
8252;SDS011;61313;48.396;10.008;2024-03-02T06:44:14;17.03;;;12.87;;
8252;SDS011;61313;48.396;10.008;2024-03-02T06:46:39;18.83;;;13.60;;
8252;SDS011;61313;48.396;10.008;2024-03-02T06:49:04;24.10;;;13.80;;
8252;SDS011;61313;48.396;10.008;2024-03-02T06:51:30;15.13;;;13.53;;
8252;SDS011;61313;48.396;10.008;2024-03-02T06:53:55;17.50;;;14.67;;
8252;SDS011;61313;48.396;10.008;2024-03-02T06:56:21;19.27;;;13.97;;
8252;SDS011;61313;48.396;10.008;2024-03-02T06:58:47;16.30;;;13.20;;
8252;SDS011;61313;48.396;10.008;2024-03-02T07:01:12;16.60;;;13.67;;
8252;SDS011;61313;48.396;10.008;2024-03-02T07:03:38;18.17;;;14.90;;
8252;SDS011;61313;48.396;10.008;2024-03-02T07:06:04;21.77;;;17.23;;
8252;SDS011;61313;48.396;10.008;2024-03-02T07:08:30;21.33;;;15.97;;
8252;SDS011;61313;48.396;10.008;2024-03-02T07:10:56;29.17;;;15.00;;
8252;SDS011;61313;48.396;10.008;2024-03-02T07:13:22;37.63;;;14.50;;
8252;SDS011;61313;48.396;10.008;2024-03-02T07:15:47;17.20;;;14.13;;
8252;SDS011;61313;48.396;10.008;2024-03-02T07:18:24;26.57;;;15.60;;
8252;SDS011;61313;48.396;10.008;2024-03-02T07:20:50;17.63;;;13.10;;
8252;SDS011;61313;48.396;10.008;2024-03-02T07:23:15;20.07;;;13.73;;
8252;SDS011;61313;48.396;10.008;2024-03-02T07:25:41;18.33;;;14.63;;
8252;SDS011;61313;48.396;10.008;2024-03-02T07:28:06;21.40;;;14.77;;
8252;SDS011;61313;48.396;10.008;2024-03-02T07:30:32;21.27;;;15.20;;
8252;SDS011;61313;48.396;10.008;2024-03-02T07:32:59;16.17;;;13.67;;
8252;SDS011;61313;48.396;10.008;2024-03-02T07:35:24;19.90;;;15.00;;
8252;SDS011;61313;48.396;10.008;2024-03-02T07:37:52;17.67;;;13.83;;
8252;SDS011;61313;48.396;10.008;2024-03-02T07:40:20;18.57;;;15.03;;
8252;SDS011;61313;48.396;10.008;2024-03-02T07:42:45;19.60;;;16.00;;
8252;SDS011;61313;48.396;10.008;2024-03-02T07:45:11;17.73;;;14.73;;
8252;SDS011;61313;48.396;10.008;2024-03-02T07:47:36;18.73;;;14.63;;
8252;SDS011;61313;48.396;10.008;2024-03-02T07:50:02;21.07;;;14.13;;
8252;SDS011;61313;48.396;10.008;2024-03-02T07:52:28;28.80;;;15.30;;
8252;SDS011;61313;48.396;10.008;2024-03-02T07:54:54;16.90;;;13.60;;
8252;SDS011;61313;48.396;10.008;2024-03-02T07:57:20;19.90;;;16.40;;
8252;SDS011;61313;48.396;10.008;2024-03-02T07:59:45;21.70;;;14.37;;
8252;SDS011;61313;48.396;10.008;2024-03-02T08:02:12;18.67;;;14.77;;
8252;SDS011;61313;48.396;10.008;2024-03-02T08:04:37;20.30;;;14.07;;
8252;SDS011;61313;48.396;10.008;2024-03-02T08:07:03;20.83;;;13.70;;
8252;SDS011;61313;48.396;10.008;2024-03-02T08:09:29;34.17;;;15.10;;
8252;SDS011;61313;48.396;10.008;2024-03-02T08:11:55;21.73;;;15.70;;
8252;SDS011;61313;48.396;10.008;2024-03-02T08:14:21;26.00;;;15.60;;
8252;SDS011;61313;48.396;10.008;2024-03-02T08:16:47;24.33;;;15.10;;
8252;SDS011;61313;48.396;10.008;2024-03-02T08:19:12;33.97;;;15.03;;
8252;SDS011;61313;48.396;10.008;2024-03-02T08:21:38;25.73;;;15.50;;
8252;SDS011;61313;48.396;10.008;2024-03-02T08:24:03;20.83;;;15.90;;
8252;SDS011;61313;48.396;10.008;2024-03-02T08:26:29;17.47;;;13.50;;
8252;SDS011;61313;48.396;10.008;2024-03-02T08:28:56;18.50;;;13.40;;
8252;SDS011;61313;48.396;10.008;2024-03-02T08:31:26;19.93;;;13.97;;
8252;SDS011;61313;48.396;10.008;2024-03-02T08:33:52;17.23;;;14.13;;
8252;SDS011;61313;48.396;10.008;2024-03-02T08:36:18;19.33;;;14.03;;
8252;SDS011;61313;48.396;10.008;2024-03-02T08:38:44;18.80;;;14.43;;
8252;SDS011;61313;48.396;10.008;2024-03-02T08:41:10;22.90;;;12.83;;
8252;SDS011;61313;48.396;10.008;2024-03-02T08:43:38;19.13;;;13.93;;
8252;SDS011;61313;48.396;10.008;2024-03-02T08:46:05;22.30;;;15.07;;
8252;SDS011;61313;48.396;10.008;2024-03-02T08:48:31;21.40;;;14.03;;
8252;SDS011;61313;48.396;10.008;2024-03-02T08:50:56;19.00;;;13.53;;
8252;SDS011;61313;48.396;10.008;2024-03-02T08:53:21;17.80;;;13.97;;
8252;SDS011;61313;48.396;10.008;2024-03-02T08:55:47;17.77;;;13.60;;
8252;SDS011;61313;48.396;10.008;2024-03-02T08:58:12;18.20;;;11.73;;
8252;SDS011;61313;48.396;10.008;2024-03-02T09:00:38;18.83;;;12.20;;
8252;SDS011;61313;48.396;10.008;2024-03-02T09:03:04;11.83;;;7.53;;
8252;SDS011;61313;48.396;10.008;2024-03-02T09:05:29;20.87;;;8.60;;
8252;SDS011;61313;48.396;10.008;2024-03-02T09:07:56;17.80;;;11.23;;
8252;SDS011;61313;48.396;10.008;2024-03-02T09:10:21;16.30;;;12.13;;
8252;SDS011;61313;48.396;10.008;2024-03-02T09:12:47;16.70;;;12.50;;
8252;SDS011;61313;48.396;10.008;2024-03-02T09:15:12;15.50;;;11.70;;
8252;SDS011;61313;48.396;10.008;2024-03-02T09:17:38;13.90;;;10.90;;
8252;SDS011;61313;48.396;10.008;2024-03-02T09:20:04;14.97;;;11.70;;
8252;SDS011;61313;48.396;10.008;2024-03-02T09:22:30;15.70;;;12.03;;
8252;SDS011;61313;48.396;10.008;2024-03-02T09:24:57;14.37;;;12.80;;
8252;SDS011;61313;48.396;10.008;2024-03-02T09:27:23;20.10;;;12.77;;
8252;SDS011;61313;48.396;10.008;2024-03-02T09:29:48;16.30;;;12.03;;
8252;SDS011;61313;48.396;10.008;2024-03-02T09:32:14;17.80;;;12.40;;
8252;SDS011;61313;48.396;10.008;2024-03-02T09:34:40;13.93;;;12.00;;
8252;SDS011;61313;48.396;10.008;2024-03-02T09:37:05;16.40;;;12.57;;
8252;SDS011;61313;48.396;10.008;2024-03-02T09:39:31;20.60;;;13.43;;
8252;SDS011;61313;48.396;10.008;2024-03-02T09:41:57;18.10;;;12.00;;
8252;SDS011;61313;48.396;10.008;2024-03-02T09:44:23;16.50;;;12.00;;
8252;SDS011;61313;48.396;10.008;2024-03-02T09:46:50;17.10;;;13.37;;
8252;SDS011;61313;48.396;10.008;2024-03-02T09:49:15;18.67;;;12.00;;
8252;SDS011;61313;48.396;10.008;2024-03-02T09:51:42;16.80;;;10.83;;
8252;SDS011;61313;48.396;10.008;2024-03-02T09:54:12;17.80;;;11.67;;
8252;SDS011;61313;48.396;10.008;2024-03-02T09:56:38;18.07;;;11.30;;
8252;SDS011;61313;48.396;10.008;2024-03-02T09:59:04;17.00;;;13.43;;
8252;SDS011;61313;48.396;10.008;2024-03-02T10:01:30;15.77;;;12.23;;
8252;SDS011;61313;48.396;10.008;2024-03-02T10:03:56;13.50;;;11.13;;
8252;SDS011;61313;48.396;10.008;2024-03-02T10:06:25;11.13;;;9.50;;
8252;SDS011;61313;48.396;10.008;2024-03-02T10:08:51;12.37;;;10.57;;
8252;SDS011;61313;48.396;10.008;2024-03-02T10:11:27;13.40;;;11.33;;
8252;SDS011;61313;48.396;10.008;2024-03-02T10:14:04;15.47;;;11.30;;
8252;SDS011;61313;48.396;10.008;2024-03-02T10:16:34;13.80;;;11.90;;
8252;SDS011;61313;48.396;10.008;2024-03-02T10:19:16;13.20;;;10.87;;
8252;SDS011;61313;48.396;10.008;2024-03-02T10:21:43;18.57;;;11.70;;
8252;SDS011;61313;48.396;10.008;2024-03-02T10:24:12;15.80;;;11.53;;
8252;SDS011;61313;48.396;10.008;2024-03-02T10:26:38;16.40;;;11.47;;
8252;SDS011;61313;48.396;10.008;2024-03-02T10:29:04;15.33;;;12.30;;
8252;SDS011;61313;48.396;10.008;2024-03-02T10:31:29;15.53;;;12.97;;
8252;SDS011;61313;48.396;10.008;2024-03-02T10:33:55;12.43;;;11.10;;
8252;SDS011;61313;48.396;10.008;2024-03-02T10:36:21;14.73;;;13.10;;
8252;SDS011;61313;48.396;10.008;2024-03-02T10:38:46;14.53;;;11.57;;
8252;SDS011;61313;48.396;10.008;2024-03-02T10:41:16;18.53;;;12.70;;
8252;SDS011;61313;48.396;10.008;2024-03-02T10:43:43;18.83;;;10.60;;
8252;SDS011;61313;48.396;10.008;2024-03-02T10:46:09;13.90;;;12.50;;
8252;SDS011;61313;48.396;10.008;2024-03-02T10:48:36;18.50;;;12.77;;
8252;SDS011;61313;48.396;10.008;2024-03-02T10:51:06;20.10;;;13.33;;
8252;SDS011;61313;48.396;10.008;2024-03-02T10:53:31;22.10;;;13.53;;
8252;SDS011;61313;48.396;10.008;2024-03-02T10:55:57;37.97;;;14.40;;
8252;SDS011;61313;48.396;10.008;2024-03-02T10:58:27;13.97;;;12.50;;
8252;SDS011;61313;48.396;10.008;2024-03-02T11:00:59;15.03;;;12.20;;
8252;SDS011;61313;48.396;10.008;2024-03-02T11:03:27;14.83;;;12.60;;
8252;SDS011;61313;48.396;10.008;2024-03-02T11:06:00;14.10;;;12.60;;
8252;SDS011;61313;48.396;10.008;2024-03-02T11:08:26;19.37;;;12.63;;
8252;SDS011;61313;48.396;10.008;2024-03-02T11:10:56;15.13;;;12.03;;
8252;SDS011;61313;48.396;10.008;2024-03-02T11:13:27;15.10;;;11.37;;
8252;SDS011;61313;48.396;10.008;2024-03-02T11:16:03;12.23;;;10.40;;
8252;SDS011;61313;48.396;10.008;2024-03-02T11:18:35;13.00;;;11.27;;
8252;SDS011;61313;48.396;10.008;2024-03-02T11:21:02;12.67;;;11.20;;
8252;SDS011;61313;48.396;10.008;2024-03-02T11:23:32;14.40;;;10.17;;
8252;SDS011;61313;48.396;10.008;2024-03-02T11:26:20;12.17;;;10.83;;
8252;SDS011;61313;48.396;10.008;2024-03-02T11:28:46;11.93;;;10.10;;
8252;SDS011;61313;48.396;10.008;2024-03-02T11:31:12;13.57;;;11.80;;
8252;SDS011;61313;48.396;10.008;2024-03-02T11:33:38;12.57;;;9.43;;
8252;SDS011;61313;48.396;10.008;2024-03-02T11:36:05;11.60;;;10.40;;
8252;SDS011;61313;48.396;10.008;2024-03-02T11:38:32;11.90;;;10.70;;
8252;SDS011;61313;48.396;10.008;2024-03-02T11:41:02;10.90;;;9.50;;
8252;SDS011;61313;48.396;10.008;2024-03-02T11:43:32;12.03;;;9.40;;
8252;SDS011;61313;48.396;10.008;2024-03-02T11:45:58;11.53;;;10.33;;
8252;SDS011;61313;48.396;10.008;2024-03-02T11:48:31;17.80;;;10.60;;
8252;SDS011;61313;48.396;10.008;2024-03-02T11:51:00;11.83;;;9.77;;
8252;SDS011;61313;48.396;10.008;2024-03-02T11:53:26;13.33;;;8.93;;
8252;SDS011;61313;48.396;10.008;2024-03-02T11:55:55;28.63;;;10.30;;
8252;SDS011;61313;48.396;10.008;2024-03-02T11:58:21;15.60;;;8.73;;
8252;SDS011;61313;48.396;10.008;2024-03-02T12:00:52;8.83;;;7.83;;
8252;SDS011;61313;48.396;10.008;2024-03-02T12:03:17;12.13;;;8.17;;
8252;SDS011;61313;48.396;10.008;2024-03-02T12:05:45;12.90;;;8.90;;
8252;SDS011;61313;48.396;10.008;2024-03-02T12:08:14;9.30;;;8.07;;
8252;SDS011;61313;48.396;10.008;2024-03-02T12:10:40;10.27;;;8.37;;
8252;SDS011;61313;48.396;10.008;2024-03-02T12:13:06;9.40;;;8.27;;
8252;SDS011;61313;48.396;10.008;2024-03-02T12:15:36;9.57;;;8.10;;
8252;SDS011;61313;48.396;10.008;2024-03-02T12:18:02;9.73;;;8.60;;
8252;SDS011;61313;48.396;10.008;2024-03-02T12:20:29;8.87;;;8.00;;
8252;SDS011;61313;48.396;10.008;2024-03-02T12:23:00;13.00;;;9.03;;
8252;SDS011;61313;48.396;10.008;2024-03-02T12:25:27;17.00;;;9.00;;
8252;SDS011;61313;48.396;10.008;2024-03-02T12:27:54;12.00;;;10.00;;
8252;SDS011;61313;48.396;10.008;2024-03-02T12:30:20;12.27;;;9.43;;
8252;SDS011;61313;48.396;10.008;2024-03-02T12:32:47;20.00;;;6.23;;
8252;SDS011;61313;48.396;10.008;2024-03-02T12:35:13;93.27;;;17.40;;
8252;SDS011;61313;48.396;10.008;2024-03-02T12:37:45;24.70;;;10.30;;
8252;SDS011;61313;48.396;10.008;2024-03-02T12:40:13;21.37;;;8.93;;
8252;SDS011;61313;48.396;10.008;2024-03-02T12:42:39;17.97;;;9.63;;
8252;SDS011;61313;48.396;10.008;2024-03-02T12:45:06;12.03;;;8.40;;
8252;SDS011;61313;48.396;10.008;2024-03-02T12:47:33;10.90;;;8.20;;
8252;SDS011;61313;48.396;10.008;2024-03-02T12:49:59;16.50;;;9.20;;
8252;SDS011;61313;48.396;10.008;2024-03-02T12:52:25;37.77;;;9.30;;
8252;SDS011;61313;48.396;10.008;2024-03-02T12:54:50;14.13;;;7.93;;
8252;SDS011;61313;48.396;10.008;2024-03-02T12:57:18;10.30;;;9.20;;
8252;SDS011;61313;48.396;10.008;2024-03-02T12:59:47;14.53;;;8.63;;
8252;SDS011;61313;48.396;10.008;2024-03-02T13:02:19;11.07;;;7.53;;
8252;SDS011;61313;48.396;10.008;2024-03-02T13:04:44;6.87;;;6.20;;
8252;SDS011;61313;48.396;10.008;2024-03-02T13:07:18;8.87;;;8.00;;
8252;SDS011;61313;48.396;10.008;2024-03-02T13:09:45;9.20;;;8.40;;
8252;SDS011;61313;48.396;10.008;2024-03-02T13:12:11;10.40;;;9.40;;
8252;SDS011;61313;48.396;10.008;2024-03-02T13:14:36;7.70;;;5.70;;
8252;SDS011;61313;48.396;10.008;2024-03-02T13:17:02;9.50;;;7.93;;
8252;SDS011;61313;48.396;10.008;2024-03-02T13:19:30;9.70;;;8.70;;
8252;SDS011;61313;48.396;10.008;2024-03-02T13:21:56;8.57;;;7.77;;
8252;SDS011;61313;48.396;10.008;2024-03-02T13:24:23;9.80;;;8.80;;
8252;SDS011;61313;48.396;10.008;2024-03-02T13:26:53;9.67;;;8.77;;
8252;SDS011;61313;48.396;10.008;2024-03-02T13:29:21;8.77;;;7.97;;
8252;SDS011;61313;48.396;10.008;2024-03-02T13:31:47;10.20;;;9.00;;
8252;SDS011;61313;48.396;10.008;2024-03-02T13:34:12;9.53;;;8.40;;
8252;SDS011;61313;48.396;10.008;2024-03-02T13:36:37;12.93;;;9.03;;
8252;SDS011;61313;48.396;10.008;2024-03-02T13:39:04;8.50;;;7.70;;
8252;SDS011;61313;48.396;10.008;2024-03-02T13:41:35;9.97;;;8.97;;
8252;SDS011;61313;48.396;10.008;2024-03-02T13:44:01;9.23;;;8.40;;
8252;SDS011;61313;48.396;10.008;2024-03-02T13:46:26;9.00;;;8.10;;
8252;SDS011;61313;48.396;10.008;2024-03-02T13:48:52;10.60;;;8.60;;
8252;SDS011;61313;48.396;10.008;2024-03-02T13:51:18;9.40;;;8.40;;
8252;SDS011;61313;48.396;10.008;2024-03-02T13:53:43;12.73;;;9.43;;
8252;SDS011;61313;48.396;10.008;2024-03-02T13:56:09;11.10;;;9.57;;
8252;SDS011;61313;48.396;10.008;2024-03-02T13:58:34;8.80;;;7.50;;
8252;SDS011;61313;48.396;10.008;2024-03-02T14:01:00;10.10;;;9.10;;
8252;SDS011;61313;48.396;10.008;2024-03-02T14:03:26;8.70;;;7.80;;
8252;SDS011;61313;48.396;10.008;2024-03-02T14:05:52;9.30;;;8.40;;
8252;SDS011;61313;48.396;10.008;2024-03-02T14:08:18;9.43;;;8.43;;
8252;SDS011;61313;48.396;10.008;2024-03-02T14:10:44;10.43;;;9.47;;
8252;SDS011;61313;48.396;10.008;2024-03-02T14:13:09;8.90;;;8.00;;
8252;SDS011;61313;48.396;10.008;2024-03-02T14:15:35;8.77;;;7.97;;
8252;SDS011;61313;48.396;10.008;2024-03-02T14:18:03;8.87;;;7.97;;
8252;SDS011;61313;48.396;10.008;2024-03-02T14:20:29;7.87;;;7.13;;
8252;SDS011;61313;48.396;10.008;2024-03-02T14:22:54;8.70;;;7.17;;
8252;SDS011;61313;48.396;10.008;2024-03-02T14:25:20;8.13;;;7.40;;